Time;durP1;ratioP1;P1;durP2;ratioP2;P2;SDS_P1;SDS_P2;PMS_P1;PMS_P2;Temp;Humidity;BMP_temperature;BMP_pressure;BME280_temperature;BME280_humidity;BME280_pressure;Samples;Min_cycle;Max_cycle;Signal;HPM_P1;HPM_P2
2024/02/03 00:02:23;;;;;;;1.17;1.07;;;;;;;6.93;59.39;96766.00;5031063;28;20241;-76
2024/02/03 00:04:48;;;;;;;1.67;1.40;;;;;;;6.81;61.03;96762.44;5031357;28;20201;-76
2024/02/03 00:07:14;;;;;;;2.97;1.50;;;;;;;6.87;62.34;96771.53;5013234;28;20634;-76
2024/02/03 00:09:39;;;;;;;1.60;1.50;;;;;;;6.91;63.14;96768.69;5030236;28;20186;-76
2024/02/03 00:12:06;;;;;;;2.57;1.60;;;;;;;6.95;64.09;96758.97;5013108;28;20217;-76
2024/02/03 00:14:32;;;;;;;3.10;1.60;;;;;;;6.80;65.28;96750.41;5013624;28;20208;-76
2024/02/03 00:16:57;;;;;;;2.10;1.50;;;;;;;6.87;66.01;96750.88;5031014;28;20629;-76
2024/02/03 00:19:23;;;;;;;2.37;1.67;;;;;;;6.73;67.63;96744.81;5028490;28;20210;-76
2024/02/03 00:21:48;;;;;;;3.30;1.93;;;;;;;6.81;67.79;96740.03;5029344;28;20213;-76
2024/02/03 00:24:13;;;;;;;3.53;1.87;;;;;;;6.77;69.25;96737.72;5001248;28;20190;-76
2024/02/03 00:26:39;;;;;;;2.77;2.00;;;;;;;6.89;69.25;96739.56;5030994;28;20189;-76
2024/02/03 00:29:04;;;;;;;1.90;1.80;;;;;;;6.85;69.39;96748.41;5029880;28;20183;-76
2024/02/03 00:31:29;;;;;;;2.10;1.90;;;;;;;6.89;70.20;96741.28;5012223;28;20684;-76
2024/02/03 00:33:55;;;;;;;2.40;1.80;;;;;;;6.96;69.79;96740.78;5018911;28;20222;-76
2024/02/03 00:36:24;;;;;;;1.87;1.67;;;;;;;6.92;70.27;96741.09;5029670;28;20198;-76
2024/02/03 00:38:49;;;;;;;2.43;1.87;;;;;;;6.85;70.44;96740.66;5010172;28;20194;-76
2024/02/03 00:41:15;;;;;;;2.60;2.10;;;;;;;6.79;71.60;96738.44;5012469;28;20220;-76
2024/02/03 00:43:41;;;;;;;2.10;1.80;;;;;;;6.85;71.06;96722.56;4996719;28;20277;-76
2024/02/03 00:46:06;;;;;;;1.80;1.63;;;;;;;6.84;71.70;96725.25;5007095;28;20261;-76
2024/02/03 00:48:31;;;;;;;3.00;2.10;;;;;;;6.84;71.31;96717.50;5013076;28;20218;-76
2024/02/03 00:50:57;;;;;;;2.17;1.97;;;;;;;6.76;71.59;96718.81;5028170;28;20210;-76
2024/02/03 00:53:22;;;;;;;2.60;1.73;;;;;;;6.74;71.66;96720.66;5008211;28;20190;-76
2024/02/03 00:55:48;;;;;;;1.80;1.70;;;;;;;6.77;71.50;96704.97;5029401;28;20221;-76
2024/02/03 00:58:13;;;;;;;1.70;1.60;;;;;;;6.78;71.26;96700.63;5012672;28;20214;-76
2024/02/03 01:00:38;;;;;;;1.80;1.50;;;;;;;6.87;70.69;96705.22;5030119;28;20702;-76
2024/02/03 01:03:04;;;;;;;1.83;1.73;;;;;;;6.80;70.70;96706.53;5030395;28;20193;-76
2024/02/03 01:05:29;;;;;;;1.97;1.50;;;;;;;6.77;70.37;96717.06;5029155;28;20316;-76
2024/02/03 01:07:55;;;;;;;1.90;1.70;;;;;;;6.84;69.69;96713.16;4990055;28;20182;-76
2024/02/03 01:10:20;;;;;;;2.00;1.57;;;;;;;6.73;70.00;96723.34;5012281;28;20221;-76
2024/02/03 01:12:46;;;;;;;1.73;1.53;;;;;;;6.79;69.41;96722.94;5011676;28;20206;-76
2024/02/03 01:15:11;;;;;;;1.60;1.50;;;;;;;6.82;69.17;96727.94;5011281;28;20190;-76
2024/02/03 01:17:37;;;;;;;1.97;1.43;;;;;;;6.79;69.09;96726.34;5029063;28;20839;-76
2024/02/03 01:20:02;;;;;;;1.50;1.40;;;;;;;6.72;69.41;96732.03;5028645;28;20189;-76
2024/02/03 01:22:28;;;;;;;2.57;2.00;;;;;;;6.70;69.32;96733.84;5030474;28;20214;-76
2024/02/03 01:24:54;;;;;;;2.90;1.77;;;;;;;6.69;69.15;96733.03;5029033;28;20182;-76
2024/02/03 01:27:20;;;;;;;1.63;1.53;;;;;;;6.71;68.99;96732.91;5030339;28;20190;-76
2024/02/03 01:29:45;;;;;;;1.93;1.73;;;;;;;6.66;68.97;96738.38;4999277;28;20182;-76
2024/02/03 01:32:10;;;;;;;2.40;2.00;;;;;;;6.59;69.48;96738.84;5011826;28;20301;-76
2024/02/03 01:34:36;;;;;;;2.10;1.67;;;;;;;6.50;69.41;96735.91;5018472;28;20265;-76
2024/02/03 01:37:01;;;;;;;3.17;1.80;;;;;;;6.59;69.15;96731.09;5011883;28;20579;-76
2024/02/03 01:39:26;;;;;;;2.23;1.60;;;;;;;6.60;68.77;96740.50;5011414;28;20231;-76
2024/02/03 01:41:52;;;;;;;2.47;1.73;;;;;;;6.59;68.88;96733.69;5028961;28;20233;-76
2024/02/03 01:44:17;;;;;;;2.33;2.10;;;;;;;6.55;68.96;96735.63;5029294;28;20273;-76
2024/02/03 01:46:43;;;;;;;2.57;1.70;;;;;;;6.43;69.25;96726.88;5029047;28;20253;-76
2024/02/03 01:49:09;;;;;;;4.20;1.80;;;;;;;6.45;69.41;96722.47;5002537;28;20229;-76
2024/02/03 01:51:34;;;;;;;1.93;1.70;;;;;;;6.49;69.38;96728.25;5029696;28;20210;-76
2024/02/03 01:54:00;;;;;;;3.20;1.70;;;;;;;6.41;70.27;96723.56;5029958;28;20213;-76
2024/02/03 01:56:25;;;;;;;2.97;1.50;;;;;;;6.46;70.45;96721.53;5028730;28;20674;-76
2024/02/03 01:58:51;;;;;;;1.93;1.70;;;;;;;6.35;71.45;96717.94;4996086;28;20627;-76
2024/02/03 02:01:17;;;;;;;2.20;1.87;;;;;;;6.44;71.12;96709.63;5012595;28;20211;-76
2024/02/03 02:03:43;;;;;;;4.07;1.80;;;;;;;6.43;70.77;96700.25;5033859;28;20706;-76
2024/02/03 02:06:09;;;;;;;2.27;1.87;;;;;;;6.33;71.43;96710.28;4997810;28;20195;-76
2024/02/03 02:08:35;;;;;;;3.20;2.43;;;;;;;6.34;71.26;96713.69;5032526;28;20679;-76
2024/02/03 02:11:02;;;;;;;2.50;1.93;;;;;;;6.36;71.78;96714.44;5001593;28;20226;-76
2024/02/03 02:13:28;;;;;;;4.23;2.10;;;;;;;6.30;72.30;96719.97;4999708;28;20189;-76
2024/02/03 02:15:53;;;;;;;2.10;1.80;;;;;;;6.34;71.80;96721.44;5015772;28;20194;-76
2024/02/03 02:18:19;;;;;;;2.57;1.90;;;;;;;6.27;72.61;96727.88;5032319;28;20202;-76
2024/02/03 02:20:44;;;;;;;2.33;1.80;;;;;;;6.31;72.24;96721.66;5006746;28;20583;-76
2024/02/03 02:23:10;;;;;;;2.03;1.73;;;;;;;6.25;72.76;96730.56;5008482;28;20214;-76
2024/02/03 02:25:35;;;;;;;2.20;2.00;;;;;;;6.24;72.49;96726.34;4984700;28;20187;-76
2024/02/03 02:28:00;;;;;;;3.70;2.10;;;;;;;6.20;72.70;96730.03;5032207;28;20186;-76
2024/02/03 02:30:26;;;;;;;2.07;1.83;;;;;;;6.11;73.72;96731.41;5032855;28;20670;-76
2024/02/03 02:32:51;;;;;;;2.37;2.13;;;;;;;6.18;73.35;96731.84;5032148;28;20240;-76
2024/02/03 02:35:16;;;;;;;2.30;2.10;;;;;;;6.11;73.03;96731.41;5015313;28;20228;-76
2024/02/03 02:37:42;;;;;;;2.47;2.17;;;;;;;6.06;73.90;96728.25;5012786;28;20182;-76
2024/02/03 02:40:08;;;;;;;2.27;2.00;;;;;;;6.03;74.04;96728.47;5013851;28;20210;-76
2024/02/03 02:42:34;;;;;;;2.50;2.07;;;;;;;5.99;74.36;96726.97;5033013;28;20203;-76
2024/02/03 02:44:59;;;;;;;2.97;2.50;;;;;;;5.94;74.86;96719.50;4995749;28;20201;-76
2024/02/03 02:47:24;;;;;;;5.73;2.80;;;;;;;5.94;74.91;96722.09;5033084;28;20190;-76
2024/02/03 02:49:50;;;;;;;3.30;2.30;;;;;;;5.94;75.14;96719.50;5031577;28;20593;-76
2024/02/03 02:52:15;;;;;;;2.80;2.50;;;;;;;5.86;75.41;96713.13;5032279;28;20210;-76
2024/02/03 02:54:40;;;;;;;3.97;2.40;;;;;;;5.82;75.33;96712.44;5015218;28;20183;-76
2024/02/03 02:57:06;;;;;;;3.50;2.80;;;;;;;5.80;75.56;96709.13;5031562;28;20631;-76
2024/02/03 02:59:31;;;;;;;4.00;2.67;;;;;;;5.78;75.38;96713.56;5006763;28;20203;-76
2024/02/03 03:01:56;;;;;;;3.70;2.67;;;;;;;5.77;75.87;96705.94;5014630;28;20215;-76
2024/02/03 03:04:22;;;;;;;3.23;2.50;;;;;;;5.79;75.46;96704.91;5031336;28;20186;-76
2024/02/03 03:06:47;;;;;;;3.00;2.70;;;;;;;5.73;75.71;96697.53;5032059;28;20274;-76
2024/02/03 03:09:12;;;;;;;3.37;2.93;;;;;;;5.75;75.21;96695.72;5010280;28;20224;-76
2024/02/03 03:11:38;;;;;;;2.73;2.53;;;;;;;5.69;75.64;96690.91;5030845;28;20206;-76
2024/02/03 03:14:05;;;;;;;3.17;2.80;;;;;;;5.70;75.77;96695.13;5031359;28;20205;-76
2024/02/03 03:16:40;;;;;;;3.30;3.00;;;;;;;5.64;75.78;96693.72;5014733;28;20197;-76
2024/02/03 03:19:06;;;;;;;3.23;2.83;;;;;;;5.65;75.30;96694.56;5030997;28;20292;-76
2024/02/03 03:21:31;;;;;;;3.20;2.90;;;;;;;5.62;75.54;96698.16;4997713;28;20305;-76
2024/02/03 03:23:56;;;;;;;3.60;2.80;;;;;;;5.60;75.79;96699.19;5031049;28;20593;-76
2024/02/03 03:26:21;;;;;;;3.23;2.93;;;;;;;5.60;75.86;96691.44;5031086;28;20561;-76
2024/02/03 03:28:47;;;;;;;4.33;3.17;;;;;;;5.50;76.18;96700.63;5032212;28;20682;-76
2024/02/03 03:31:12;;;;;;;3.93;2.83;;;;;;;5.64;75.70;96698.06;5006803;28;20677;-76
2024/02/03 03:33:37;;;;;;;3.00;2.70;;;;;;;5.58;75.92;96698.44;5032061;28;20624;-76
2024/02/03 03:36:03;;;;;;;4.03;3.07;;;;;;;5.58;76.15;96698.44;5014240;28;20398;-76
2024/02/03 03:38:29;;;;;;;3.23;2.80;;;;;;;5.57;76.11;96710.50;5012832;28;20221;-76
2024/02/03 03:40:56;;;;;;;3.73;3.10;;;;;;;5.65;75.86;96702.28;5013004;28;20218;-76
2024/02/03 03:43:21;;;;;;;3.40;3.10;;;;;;;5.50;76.27;96700.63;5031915;28;20648;-76
2024/02/03 03:45:47;;;;;;;4.03;2.90;;;;;;;5.55;75.88;96690.88;5030454;28;20248;-76
2024/02/03 03:48:12;;;;;;;4.10;3.43;;;;;;;5.51;75.93;96695.38;4991296;28;20537;-76
2024/02/03 03:50:37;;;;;;;3.57;2.93;;;;;;;5.48;76.39;96695.56;4997179;28;20197;-76
2024/02/03 03:53:03;;;;;;;4.80;3.40;;;;;;;5.48;76.37;96689.56;5030506;28;20186;-76
2024/02/03 03:55:28;;;;;;;3.50;2.77;;;;;;;5.54;75.86;96690.03;5031907;28;20232;-76
2024/02/03 03:57:53;;;;;;;4.03;3.20;;;;;;;5.47;76.27;96693.06;5013801;28;20294;-76
2024/02/03 04:00:19;;;;;;;4.27;3.23;;;;;;;5.43;76.40;96694.16;5031026;28;20240;-76
2024/02/03 04:02:46;;;;;;;3.33;3.03;;;;;;;5.45;76.00;96690.56;5031540;28;20292;-76
2024/02/03 04:05:11;;;;;;;3.30;2.93;;;;;;;5.37;76.11;96688.44;5013549;28;20277;-76
2024/02/03 04:07:36;;;;;;;4.67;3.50;;;;;;;5.42;76.19;96700.25;4994394;28;20623;-76
2024/02/03 04:10:02;;;;;;;3.70;2.70;;;;;;;5.42;75.89;96693.34;5031002;28;20688;-76
2024/02/03 04:12:27;;;;;;;3.53;3.20;;;;;;;5.23;76.49;96696.13;5011979;28;20206;-76
2024/02/03 04:14:53;;;;;;;3.67;3.03;;;;;;;5.29;76.01;96700.91;5031059;28;20683;-76
2024/02/03 04:17:18;;;;;;;5.47;3.17;;;;;;;5.29;76.04;96700.91;5031305;28;20692;-76
2024/02/03 04:19:43;;;;;;;4.63;3.83;;;;;;;5.23;76.33;96701.28;5017782;28;20293;-76
2024/02/03 04:22:12;;;;;;;6.07;3.63;;;;;;;5.19;76.27;96692.06;5030778;28;20206;-76
2024/02/03 04:24:38;;;;;;;5.17;3.87;;;;;;;5.24;76.31;96705.50;4994538;28;20191;-76
2024/02/03 04:27:03;;;;;;;6.17;3.90;;;;;;;5.22;76.09;96702.22;5029862;28;20189;-76
2024/02/03 04:29:29;;;;;;;5.33;3.67;;;;;;;5.16;76.68;96706.88;4997109;28;20216;-76
2024/02/03 04:31:54;;;;;;;4.70;3.90;;;;;;;5.24;75.69;96705.50;5004927;28;20289;-76
2024/02/03 04:34:19;;;;;;;3.97;3.57;;;;;;;5.25;76.14;96704.59;5013330;28;20321;-76
2024/02/03 04:36:46;;;;;;;4.57;3.73;;;;;;;5.20;76.67;96704.00;5029771;28;20183;-76
2024/02/03 04:39:11;;;;;;;4.93;3.80;;;;;;;5.22;76.85;96711.69;5030812;28;20217;-76
2024/02/03 04:41:37;;;;;;;5.07;4.33;;;;;;;5.20;77.32;96708.34;5029324;28;20589;-76
2024/02/03 04:44:02;;;;;;;6.40;3.60;;;;;;;5.19;77.16;96710.09;5029476;28;20198;-76
2024/02/03 04:46:27;;;;;;;4.37;3.90;;;;;;;5.21;77.54;96717.72;5031149;28;20652;-76
2024/02/03 04:48:53;;;;;;;5.90;4.67;;;;;;;5.18;77.89;96720.47;5027160;28;20637;-76
2024/02/03 04:51:18;;;;;;;6.83;4.93;;;;;;;5.12;78.65;96713.91;5028955;28;20996;-76
2024/02/03 04:53:44;;;;;;;7.50;5.30;;;;;;;5.18;78.70;96721.31;5029298;28;20589;-76
2024/02/03 04:56:09;;;;;;;7.73;5.93;;;;;;;5.10;80.03;96718.31;5011855;28;20205;-76
2024/02/03 04:58:35;;;;;;;9.63;6.70;;;;;;;5.10;81.01;96723.47;5030436;28;20207;-76
2024/02/03 05:01:01;;;;;;;8.43;6.87;;;;;;;5.08;81.32;96717.59;4994882;28;20213;-76
2024/02/03 05:03:26;;;;;;;8.63;7.47;;;;;;;5.07;81.69;96709.03;5007765;28;20217;-76
2024/02/03 05:05:52;;;;;;;10.43;8.00;;;;;;;4.98;83.37;96712.13;5012470;28;20679;-76
2024/02/03 05:08:18;;;;;;;11.17;8.30;;;;;;;5.03;83.44;96715.25;5009014;28;20691;-76
2024/02/03 05:10:43;;;;;;;11.07;8.70;;;;;;;5.00;84.32;96694.84;5008487;28;20222;-76
2024/02/03 05:13:08;;;;;;;13.40;9.00;;;;;;;5.05;84.85;96707.47;5030417;28;20259;-76
2024/02/03 05:15:34;;;;;;;12.27;9.47;;;;;;;4.96;86.14;96693.38;5012699;28;20186;-76
2024/02/03 05:17:59;;;;;;;11.53;9.07;;;;;;;5.17;86.11;96699.06;5029050;28;20209;-76
2024/02/03 05:20:24;;;;;;;13.83;9.67;;;;;;;5.17;86.54;96706.78;5011597;28;20534;-76
2024/02/03 05:22:50;;;;;;;12.87;9.63;;;;;;;5.24;87.14;96708.09;4991356;28;20206;-76
2024/02/03 05:25:16;;;;;;;13.27;9.93;;;;;;;5.28;87.35;96704.41;5030353;28;20328;-76
2024/02/03 05:27:42;;;;;;;13.37;10.23;;;;;;;5.44;86.82;96706.13;5012005;28;20199;-76
2024/02/03 05:30:08;;;;;;;12.80;10.07;;;;;;;5.45;86.71;96710.34;5004791;28;20667;-76
2024/02/03 05:32:34;;;;;;;17.03;10.17;;;;;;;5.45;87.23;96715.50;5001760;28;20303;-76
2024/02/03 05:34:59;;;;;;;13.37;10.43;;;;;;;5.44;88.39;96716.44;5028984;28;20182;-76
2024/02/03 05:37:24;;;;;;;13.70;11.33;;;;;;;5.54;87.97;96717.56;5012843;28;20226;-76
2024/02/03 05:39:50;;;;;;;15.40;12.30;;;;;;;5.49;89.41;96717.00;5006208;28;20223;-76
2024/02/03 05:42:15;;;;;;;15.57;11.83;;;;;;;5.46;90.79;96712.84;5032516;28;20729;-76
2024/02/03 05:44:40;;;;;;;15.33;12.33;;;;;;;5.59;90.30;96718.13;5011335;28;20683;-76
2024/02/03 05:47:06;;;;;;;15.17;11.40;;;;;;;5.59;90.46;96718.13;5011832;28;20187;-76
2024/02/03 05:49:31;;;;;;;14.53;11.63;;;;;;;5.77;90.04;96717.06;5016478;28;20178;-76
2024/02/03 05:51:56;;;;;;;15.70;11.37;;;;;;;5.75;90.28;96713.75;5001449;28;20209;-76
2024/02/03 05:54:22;;;;;;;16.63;12.13;;;;;;;5.73;90.32;96718.16;5032641;28;20224;-76
2024/02/03 05:56:47;;;;;;;18.60;13.20;;;;;;;5.65;91.97;96720.34;5008999;28;20680;-76
2024/02/03 05:59:12;;;;;;;17.63;13.00;;;;;;;5.61;93.28;96718.88;5032581;28;20676;-76
2024/02/03 06:01:38;;;;;;;15.30;13.00;;;;;;;5.48;94.97;96707.59;5013306;28;20668;-76
2024/02/03 06:04:04;;;;;;;18.70;13.57;;;;;;;5.68;94.53;96709.88;5016084;28;20190;-76
2024/02/03 06:06:31;;;;;;;30.00;20.07;;;;;;;5.75;94.16;96706.03;5005210;28;20293;-76
2024/02/03 06:08:57;;;;;;;25.53;19.30;;;;;;;5.65;95.03;96715.19;5015950;28;20184;-76
2024/02/03 06:11:22;;;;;;;23.30;18.10;;;;;;;5.83;94.54;96715.84;5031812;28;20302;-76
2024/02/03 06:13:47;;;;;;;20.57;14.27;;;;;;;5.61;96.63;96713.72;5006705;28;20186;-76
2024/02/03 06:16:13;;;;;;;17.00;13.47;;;;;;;5.66;96.12;96709.97;5032181;28;20179;-76
2024/02/03 06:18:38;;;;;;;23.03;15.10;;;;;;;5.85;94.92;96711.47;5015287;28;20264;-76
2024/02/03 06:21:04;;;;;;;19.00;14.87;;;;;;;5.78;95.12;96717.91;5032892;28;20210;-76
2024/02/03 06:23:29;;;;;;;21.67;15.60;;;;;;;5.70;96.43;96720.91;5033432;28;20209;-78
2024/02/03 06:25:54;;;;;;;18.97;14.43;;;;;;;5.83;95.52;96716.72;5032469;28;20187;-77
2024/02/03 06:28:20;;;;;;;22.17;15.13;;;;;;;5.93;94.86;96717.03;5015790;28;20182;-76
2024/02/03 06:30:46;;;;;;;21.93;15.17;;;;;;;5.95;94.71;96723.75;5010045;28;20209;-76
2024/02/03 06:33:11;;;;;;;20.53;14.83;;;;;;;5.97;94.67;96723.66;5011179;28;20183;-76
2024/02/03 06:35:36;;;;;;;19.40;14.47;;;;;;;5.99;94.40;96726.97;5009992;28;20273;-76
2024/02/03 06:38:02;;;;;;;22.23;14.43;;;;;;;5.77;95.76;96739.44;5014544;28;20221;-76
2024/02/03 06:40:27;;;;;;;20.10;14.47;;;;;;;5.76;95.92;96728.28;5003979;28;20221;-76
2024/02/03 06:42:53;;;;;;;18.53;14.50;;;;;;;5.62;97.74;96731.66;5007445;28;20198;-76
2024/02/03 06:45:18;;;;;;;18.20;13.77;;;;;;;5.81;96.20;96738.31;5031940;28;20194;-76
2024/02/03 06:47:44;;;;;;;19.07;13.40;;;;;;;5.94;95.51;96749.63;4998324;28;20256;-75
2024/02/03 06:50:11;;;;;;;18.80;13.77;;;;;;;5.90;95.61;96746.38;5032115;28;20187;-76
2024/02/03 06:52:37;;;;;;;19.03;13.30;;;;;;;5.94;95.87;96747.88;5032643;28;20862;-75
2024/02/03 06:55:03;;;;;;;16.47;12.77;;;;;;;5.87;96.06;96743.13;4998176;28;20190;-76
2024/02/03 06:57:28;;;;;;;20.20;14.47;;;;;;;5.83;96.47;96750.22;5011267;28;20270;-76
2024/02/03 06:59:53;;;;;;;16.77;12.83;;;;;;;5.92;95.85;96749.72;4995371;28;20687;-75
2024/02/03 07:02:19;;;;;;;16.20;12.13;;;;;;;5.90;95.59;96748.97;5014530;28;20207;-76
2024/02/03 07:04:44;;;;;;;15.33;11.37;;;;;;;5.86;95.75;96747.47;5001979;28;20269;-76
2024/02/03 07:07:09;;;;;;;16.93;11.40;;;;;;;5.87;95.70;96740.56;5014060;28;20221;-76
2024/02/03 07:09:35;;;;;;;13.93;11.30;;;;;;;5.89;95.75;96749.84;5010492;28;20225;-76
2024/02/03 07:12:01;;;;;;;14.00;9.80;;;;;;;5.85;95.88;96750.97;5005757;28;20222;-76
2024/02/03 07:14:26;;;;;;;13.53;10.10;;;;;;;5.94;95.34;96750.44;5031188;28;20203;-75
2024/02/03 07:16:52;;;;;;;11.77;9.33;;;;;;;5.91;95.38;96744.63;5031780;28;20256;-76
2024/02/03 07:19:17;;;;;;;10.77;8.37;;;;;;;5.99;95.01;96749.34;5014055;28;20205;-78
2024/02/03 07:21:42;;;;;;;11.87;8.50;;;;;;;5.93;95.26;96759.13;5030353;28;20195;-78
2024/02/03 07:24:10;;;;;;;10.33;8.13;;;;;;;5.89;94.92;96762.75;5010778;28;20338;-76
2024/02/03 07:26:36;;;;;;;8.60;7.63;;;;;;;5.96;95.14;96751.19;5032555;28;20245;-78
2024/02/03 07:29:01;;;;;;;9.40;7.33;;;;;;;6.06;94.81;96759.22;5017325;28;20209;-80
2024/02/03 07:31:28;;;;;;;8.77;6.67;;;;;;;5.98;95.76;96756.25;5001581;28;20209;-78
2024/02/03 07:33:53;;;;;;;9.07;7.10;;;;;;;6.12;94.97;96751.13;5014146;28;20193;-76
2024/02/03 07:36:19;;;;;;;9.07;6.40;;;;;;;6.15;94.52;96753.50;5035412;28;20178;-77
2024/02/03 07:38:44;;;;;;;9.37;6.97;;;;;;;5.95;95.59;96748.69;5013958;28;20337;-77
2024/02/03 07:41:09;;;;;;;8.10;6.40;;;;;;;6.05;95.49;96751.56;5030936;28;20343;-77
2024/02/03 07:43:35;;;;;;;8.57;5.87;;;;;;;6.08;94.98;96748.78;5030485;28;20179;-76
2024/02/03 07:46:00;;;;;;;7.23;5.50;;;;;;;5.97;96.26;96742.53;5006765;28;20187;-76
2024/02/03 07:48:25;;;;;;;6.53;5.47;;;;;;;6.11;95.46;96748.63;5012121;28;20180;-76
2024/02/03 07:50:51;;;;;;;5.83;4.90;;;;;;;6.10;95.30;96758.13;5011976;28;20571;-77
2024/02/03 07:53:16;;;;;;;6.43;5.20;;;;;;;6.18;95.01;96755.06;5031522;28;20190;-77
2024/02/03 07:55:42;;;;;;;7.73;5.10;;;;;;;6.05;96.05;96756.72;5012146;28;20179;-77
2024/02/03 07:58:07;;;;;;;10.03;7.10;;;;;;;6.09;95.50;96758.19;5031383;28;20673;-76
2024/02/03 08:00:32;;;;;;;12.10;9.10;;;;;;;6.17;95.25;96756.00;5012813;28;20616;-77
2024/02/03 08:02:58;;;;;;;11.80;8.90;;;;;;;6.01;95.96;96758.66;5010109;28;20187;-76
2024/02/03 08:05:23;;;;;;;17.87;12.47;;;;;;;6.10;95.52;96760.69;5029183;28;20178;-77
2024/02/03 08:07:48;;;;;;;12.70;9.17;;;;;;;6.08;96.16;96759.13;4996859;28;20260;-76
2024/02/03 08:10:14;;;;;;;6.23;5.27;;;;;;;6.06;95.91;96755.81;5012314;28;20660;-75
2024/02/03 08:12:39;;;;;;;9.60;7.57;;;;;;;6.21;95.29;96742.00;5031315;28;20198;-76
2024/02/03 08:15:05;;;;;;;5.93;5.33;;;;;;;6.09;96.42;96750.44;5009537;28;20667;-75
2024/02/03 08:17:31;;;;;;;5.50;4.87;;;;;;;6.15;95.99;96750.09;5031010;28;20178;-76
2024/02/03 08:19:57;;;;;;;7.33;5.43;;;;;;;6.28;95.32;96751.03;5010845;28;20245;-76
2024/02/03 08:22:23;;;;;;;7.57;5.90;;;;;;;6.27;95.37;96757.09;5029760;28;20203;-76
2024/02/03 08:24:48;;;;;;;9.33;8.43;;;;;;;6.16;95.85;96754.34;5010682;28;20731;-76
2024/02/03 08:27:14;;;;;;;8.93;7.97;;;;;;;6.45;94.58;96760.34;5013633;28;20262;-76
2024/02/03 08:29:39;;;;;;;9.00;6.57;;;;;;;6.25;94.91;96771.84;5013371;28;20629;-76
2024/02/03 08:32:05;;;;;;;6.97;5.83;;;;;;;6.22;95.24;96764.28;5005116;28;20279;-76
2024/02/03 08:34:30;;;;;;;6.53;5.87;;;;;;;6.30;94.68;96756.94;5030862;28;20239;-76
2024/02/03 08:36:56;;;;;;;7.57;5.57;;;;;;;6.21;96.03;96762.63;5029709;28;20182;-76
2024/02/03 08:39:21;;;;;;;7.03;5.10;;;;;;;6.29;95.51;96763.00;5004330;28;20210;-75
2024/02/03 08:41:46;;;;;;;7.17;6.00;;;;;;;6.18;95.84;96750.75;5012764;28;20612;-76
2024/02/03 08:44:11;;;;;;;5.67;5.07;;;;;;;6.16;95.92;96760.31;5013108;28;20574;-76
2024/02/03 08:46:37;;;;;;;7.27;6.57;;;;;;;6.30;95.12;96769.81;5029519;28;20563;-76
2024/02/03 08:49:02;;;;;;;6.00;5.33;;;;;;;6.07;96.28;96766.03;4990489;28;20187;-76
2024/02/03 08:51:27;;;;;;;9.83;7.43;;;;;;;6.17;95.60;96771.47;5012537;28;20576;-76
2024/02/03 08:53:53;;;;;;;7.20;6.33;;;;;;;6.11;95.90;96771.84;5030697;28;20668;-76
2024/02/03 08:56:19;;;;;;;7.27;6.57;;;;;;;6.24;95.42;96777.94;5030826;28;20660;-76
2024/02/03 08:58:45;;;;;;;13.73;12.40;;;;;;;6.25;95.49;96775.25;5037814;28;20194;-76
2024/02/03 09:01:10;;;;;;;6.77;5.77;;;;;;;6.32;95.02;96764.56;4984614;28;20685;-76
2024/02/03 09:03:35;;;;;;;7.57;6.87;;;;;;;6.41;94.31;96769.19;5030768;28;20178;-76
2024/02/03 09:06:01;;;;;;;8.30;7.50;;;;;;;6.27;94.95;96771.75;5015214;28;20265;-76
2024/02/03 09:08:26;;;;;;;6.57;5.30;;;;;;;6.22;95.20;96772.03;5012330;28;20299;-76
2024/02/03 09:10:51;;;;;;;8.17;7.30;;;;;;;6.31;94.60;96779.22;5002632;28;20206;-76
2024/02/03 09:13:17;;;;;;;6.03;4.77;;;;;;;6.00;95.59;96769.03;5030578;28;20259;-76
2024/02/03 09:15:42;;;;;;;7.40;5.23;;;;;;;6.06;96.21;96779.00;5012654;28;20186;-76
2024/02/03 09:18:07;;;;;;;6.57;4.93;;;;;;;6.21;95.62;96780.69;4999591;28;20332;-76
2024/02/03 09:20:32;;;;;;;7.87;5.13;;;;;;;6.21;95.20;96781.53;5008675;28;20178;-76
2024/02/03 09:22:58;;;;;;;6.33;5.53;;;;;;;6.29;94.66;96778.50;5017480;28;20225;-76
2024/02/03 09:25:23;;;;;;;7.73;5.87;;;;;;;6.08;95.53;96772.84;5029048;28;20190;-76
2024/02/03 09:27:48;;;;;;;7.73;5.87;;;;;;;6.12;95.37;96764.00;5029199;28;20206;-76
2024/02/03 09:30:14;;;;;;;7.03;5.40;;;;;;;6.37;94.74;96781.44;5029014;28;20175;-76
2024/02/03 09:32:39;;;;;;;9.00;5.87;;;;;;;6.29;94.72;96778.50;5030196;28;20206;-76
2024/02/03 09:35:05;;;;;;;8.80;6.67;;;;;;;6.27;94.79;96776.91;5012570;28;20189;-76
2024/02/03 09:37:30;;;;;;;8.33;7.00;;;;;;;6.31;94.43;96783.56;5030266;28;20178;-76
2024/02/03 09:39:56;;;;;;;9.93;8.10;;;;;;;6.16;95.46;96777.53;5028378;28;20216;-76
2024/02/03 09:42:23;;;;;;;8.50;6.47;;;;;;;6.09;95.58;96773.66;5028914;28;20293;-76
2024/02/03 09:44:48;;;;;;;8.90;6.47;;;;;;;6.16;95.13;96773.22;5029060;28;20693;-76
2024/02/03 09:47:15;;;;;;;7.60;6.47;;;;;;;6.33;94.26;96779.13;5007508;28;20178;-76
2024/02/03 09:49:40;;;;;;;7.37;6.20;;;;;;;6.46;93.95;96788.63;4996210;28;20175;-76
2024/02/03 09:52:07;;;;;;;10.20;6.77;;;;;;;6.89;91.81;96780.00;5029615;28;20225;-76
2024/02/03 09:54:33;;;;;;;9.77;6.73;;;;;;;6.70;92.35;96770.81;5012209;28;20275;-76
2024/02/03 09:56:58;;;;;;;7.93;6.43;;;;;;;6.79;91.72;96770.25;5013179;28;20250;-76
2024/02/03 09:59:23;;;;;;;24.87;16.23;;;;;;;6.90;90.67;96771.38;5029772;28;20199;-76
2024/02/03 10:01:49;;;;;;;21.33;13.33;;;;;;;6.93;89.50;96772.00;5029391;28;20229;-76
2024/02/03 10:04:14;;;;;;;9.20;6.93;;;;;;;7.06;89.07;96767.69;5012055;28;20186;-76
2024/02/03 10:06:47;;;;;;;12.33;8.73;;;;;;;6.86;89.24;96757.78;5012399;28;20198;-76
2024/02/03 10:09:25;;;;;;;9.03;7.10;;;;;;;7.05;87.97;96755.72;5010957;28;20713;-76
2024/02/03 10:11:50;;;;;;;6.47;5.40;;;;;;;6.86;87.81;96760.38;5009898;28;20277;-76
2024/02/03 10:14:16;;;;;;;5.67;5.10;;;;;;;6.96;87.99;96764.03;5028598;28;20270;-76
2024/02/03 10:16:43;;;;;;;6.20;4.40;;;;;;;6.95;87.23;96757.22;5000982;28;20674;-76
2024/02/03 10:19:09;;;;;;;4.47;3.77;;;;;;;6.90;86.82;96761.88;5005146;28;20198;-76
2024/02/03 10:21:34;;;;;;;4.17;3.40;;;;;;;7.16;85.69;96775.72;5022398;28;20317;-76
2024/02/03 10:23:59;;;;;;;4.60;3.90;;;;;;;7.20;84.86;96769.44;5033428;28;20668;-76
2024/02/03 10:26:25;;;;;;;4.30;2.80;;;;;;;7.38;84.15;96776.00;5015833;28;20555;-76
2024/02/03 10:28:50;;;;;;;2.70;2.37;;;;;;;7.31;84.55;96766.16;5033437;28;20664;-76
2024/02/03 10:31:15;;;;;;;2.83;2.47;;;;;;;7.55;83.09;96762.00;5032264;28;20711;-76
2024/02/03 10:33:44;;;;;;;2.43;2.20;;;;;;;7.35;82.60;96757.31;5007270;28;20189;-76
2024/02/03 10:36:09;;;;;;;3.23;2.80;;;;;;;7.59;82.33;96762.63;5024356;28;20183;-76
2024/02/03 10:38:35;;;;;;;2.37;2.13;;;;;;;7.56;83.00;96763.66;5015671;28;20691;-76
2024/02/03 10:41:10;;;;;;;2.27;1.93;;;;;;;7.47;82.23;96756.50;5031350;28;20265;-76
2024/02/03 10:43:37;;;;;;;1.70;1.60;;;;;;;7.72;81.28;96747.16;5009026;28;20212;-76
2024/02/03 10:46:05;;;;;;;1.27;1.17;;;;;;;7.52;81.88;96753.63;5027409;28;20193;-76
2024/02/03 10:48:33;;;;;;;1.20;1.07;;;;;;;7.51;82.32;96747.63;5031837;28;20179;-76
2024/02/03 10:51:02;;;;;;;1.63;1.50;;;;;;;8.00;80.28;96754.75;5031034;28;20202;-76
2024/02/03 10:53:31;;;;;;;1.53;1.10;;;;;;;7.90;79.17;96754.53;5015508;28;20192;-76
2024/02/03 10:56:00;;;;;;;2.30;1.10;;;;;;;8.00;79.45;96751.31;5011315;28;20186;-77
2024/02/03 10:58:27;;;;;;;0.90;0.90;;;;;;;7.73;80.20;96743.63;5008020;28;20199;-76
2024/02/03 11:00:53;;;;;;;1.77;1.20;;;;;;;7.79;79.59;96738.91;5006057;28;20202;-76
2024/02/03 11:03:22;;;;;;;1.47;1.37;;;;;;;7.85;79.28;96740.22;5031766;28;20194;-76
2024/02/03 11:05:47;;;;;;;1.40;1.17;;;;;;;8.13;78.30;96734.88;5002901;28;20808;-76
2024/02/03 11:08:13;;;;;;;0.63;0.63;;;;;;;8.08;78.16;96749.88;5016140;28;20263;-76
2024/02/03 11:10:40;;;;;;;1.30;0.80;;;;;;;8.22;77.85;96744.63;5006018;28;20179;-76
2024/02/03 11:13:21;;;;;;;1.97;1.70;;;;;;;8.23;77.52;96748.84;5026586;28;20186;-76
2024/02/03 11:15:46;;;;;;;0.70;0.70;;;;;;;8.48;76.98;96749.78;4998541;28;20192;-76
2024/02/03 11:18:13;;;;;;;3.03;2.83;;;;;;;8.50;76.65;96741.00;5013819;28;20588;-76
2024/02/03 11:20:39;;;;;;;5.23;4.73;;;;;;;8.36;77.34;96746.28;5032136;28;20709;-76
2024/02/03 11:23:11;;;;;;;1.90;1.40;;;;;;;8.44;77.04;96743.16;5030855;28;20660;-76
2024/02/03 11:25:38;;;;;;;1.43;1.27;;;;;;;8.60;76.69;96738.59;5007981;28;20182;-75
2024/02/03 11:28:04;;;;;;;1.90;1.70;;;;;;;8.57;76.46;96737.97;5021291;28;20194;-76
2024/02/03 11:30:29;;;;;;;1.20;1.10;;;;;;;8.66;76.10;96733.00;5037767;28;20713;-76
2024/02/03 11:32:55;;;;;;;1.67;1.50;;;;;;;8.47;76.47;96736.00;5031040;28;20638;-76